Airfield :
LOGIN :

Register | Disclaimer

   EN    FR    IT 

 










Legend :    VFR   Marginal VFR   IFR   Intensive IFR   Very Intensive IFR
Visi :
Ceiling :
>= 8 km
>= 3000ft
5 to 8 km
1000 to 3000 ft
1500m to 5 km
500 to 1000 ft
800 to 1500m
200 to 500 ft
< 800m
< 200 ft
Symbols :   Thunderstorms  Fog  Heavy snow  Heavy precipitations  Wind > 20 kt
SIGMETs :     Misc.  Thunderstorms  Icing  Turbulence  Mountain Waves  Volcanic Ashes







- Airport Elevation : 1504 ft
- IATA code : PNA


LEPP - Noain Pamplona

CURRENT METAR :
  • 262100Z 00000KT CAVOK 14/11 Q1022

EXPIRED METARs :
  • 262030Z 29002KT CAVOK 14/11 Q1022
  • 262000Z VRB01KT CAVOK 15/11 Q1022
  • 261930Z VRB02KT CAVOK 16/11 Q1022
  • 261900Z 02004KT CAVOK 16/11 Q1021
  • 261830Z 00000KT CAVOK 17/11 Q1021

TAF TAF LEPP
Valid from the 26 at 21:00 until the 27 at 21:00 UTC


262000Z 2621/2721 VRB02KT CAVOK TX26/2714Z TN09/2705Z
TEMPO 2712/2718 18010KT
No reported NOTAMs for that airfield.



MET'MAP, your aeronautical weather chart ! - Copyright ORBIFLY December 2007 - Disclaimer

ORBIFLY MET'MAP TEAM :

Programming & Development : Alexandra Zaïnal
Concept & Development : Baudouin d'Aumeries
Co-Development & Prog : Marc-Olivier Méhu
Technical & hardware support : Manuel Goepfert

Contact : metmap@orbifly.com




SOURCES & CREDITS :

   NOAA